TAF Text Data
IDs:
Format:
Raw Decoded Include METAR

Data at: 0852 UTC 21 Oct 2018

KAEG 210835Z AUTO 34006KT 10SM CLR 07/M01 A3040 RMK AO2 T00671014

KAEG 210532Z 2106/2206 11010KT P6SM FEW080
  FM211000 03006KT P6SM BKN080 BKN250
  FM211800 15008KT P6SM BKN250
  FM220000 18010KT P6SM BKN250